GFD weather

Pope Field
Greenfield, Indiana, United States

Public forecast

Using degrees Fahrenheit for public forecast. Weather courtesy of forecast.io.

Closest aviation weather report (METAR) to Pope Field

Closest report is Indianapolis Regional Airport, 8.1 nm (15.0 km) WNW. Retrieved 2020/08/07 21:35 UTC (8 minutes ago):

KMQJ 072135Z AUTO 01004KT 10SM CLR 26/16 A3017 RMK AO1

Closest aviation forecast (TAF) to Pope Field

Closest forecast is Indianapolis International Airport, 26.1 nm (48.4 km) W. Retrieved 2020/08/07 18:22 UTC (3 hours ago):

TAF KIND 071720Z 0718/0824 05006KT P6SM SCT050 FM080100 VRB03KT P6SM SKC FM081400 16004KT P6SM FEW250